Terminal Aerodrome Forecast
Issued by NWS Austin/San Antonio, TX

Home | Current Version | Previous Version | Text Only | Print | Product List | Glossary On
Versions: 1 2 3 4 5 6 7 8 9 10 11 12 13 14 15 16 17
000
FTUS44 KEWX 311100
TAFAUS
TAF
KAUS 311120Z 3112/0118 10008KT P6SM OVC015
     FM311800 13011KT 3SM BR OVC012
     FM312000 13008KT 2SM -RA BR OVC007
     FM010600 18006KT 4SM BR OVC003
     FM011500 18006KT P6SM BKN015=

USA.gov is the U.S. government's official web portal to all federal, state and local government web resources and services.